createdAt,value
2019-05-01T00:00:59.595Z,12.06
2019-05-01T00:03:36.098Z,12.06
2019-05-01T00:06:03.947Z,12.13
2019-05-01T00:08:29.882Z,12.13
2019-05-01T00:10:55.731Z,12.00
2019-05-01T00:13:22.162Z,12.00
2019-05-01T00:15:49.710Z,12.00
2019-05-01T00:18:15.544Z,11.94
2019-05-01T00:20:41.409Z,12.00
2019-05-01T00:23:07.311Z,12.00
2019-05-01T00:25:33.146Z,12.00
2019-05-01T00:27:58.991Z,12.00
2019-05-01T00:30:29.987Z,11.94
2019-05-01T00:32:53.083Z,12.06
2019-05-01T00:35:18.919Z,12.00
2019-05-01T00:37:44.740Z,12.00
2019-05-01T00:40:10.798Z,12.00
2019-05-01T00:42:36.640Z,11.94
2019-05-01T00:45:04.787Z,12.06
2019-05-01T00:47:30.606Z,11.94
2019-05-01T00:49:56.533Z,12.00
2019-05-01T00:52:22.420Z,12.06
2019-05-01T00:54:50.186Z,12.06
2019-05-01T00:57:34.743Z,12.06
2019-05-01T01:00:08.025Z,12.06
2019-05-01T01:02:35.867Z,12.13
2019-05-01T01:05:01.702Z,12.06
2019-05-01T01:07:27.543Z,12.19
2019-05-01T01:09:53.471Z,12.25
2019-05-01T01:12:19.298Z,12.19
2019-05-01T01:14:45.159Z,12.25
2019-05-01T01:17:11.017Z,12.25
2019-05-01T01:19:36.859Z,12.31
2019-05-01T01:22:02.690Z,12.37
2019-05-01T01:24:28.545Z,12.37
2019-05-01T01:26:54.487Z,12.37
2019-05-01T01:29:20.322Z,12.44
2019-05-01T01:31:46.161Z,12.44
2019-05-01T01:34:12.012Z,12.56
2019-05-01T01:36:37.895Z,12.50
2019-05-01T01:39:05.095Z,12.44
2019-05-01T01:41:31.025Z,12.56
2019-05-01T01:44:10.887Z,12.50
2019-05-01T01:46:38.945Z,12.56
2019-05-01T01:49:04.770Z,12.63
2019-05-01T01:51:30.619Z,12.63
2019-05-01T01:53:56.796Z,12.50
2019-05-01T01:56:22.653Z,12.56
2019-05-01T01:58:48.789Z,12.56
2019-05-01T02:01:31.401Z,12.63
2019-05-01T02:04:01.996Z,12.63
2019-05-01T02:06:27.837Z,12.56
2019-05-01T02:08:56.764Z,12.56
2019-05-01T02:11:21.537Z,12.56
2019-05-01T02:13:47.566Z,12.63
2019-05-01T02:16:13.408Z,12.56
2019-05-01T02:18:39.259Z,12.56
2019-05-01T02:21:05.195Z,12.63
2019-05-01T02:23:31.014Z,12.56
2019-05-01T02:25:56.845Z,12.56
2019-05-01T02:28:30.934Z,12.50
2019-05-01T02:31:26.977Z,12.56
2019-05-01T02:33:46.361Z,12.37
2019-05-01T02:36:13.998Z,12.37
2019-05-01T02:38:40.242Z,12.44
2019-05-01T02:41:07.730Z,12.31
2019-05-01T02:43:34.879Z,12.31
2019-05-01T02:46:01.599Z,12.37
2019-05-01T02:48:29.824Z,12.31
2019-05-01T02:50:57.843Z,12.44
2019-05-01T02:53:24.080Z,12.37
2019-05-01T02:56:09.061Z,12.19
2019-05-01T02:58:35.075Z,12.19
2019-05-01T03:01:00.932Z,12.19
2019-05-01T03:03:26.983Z,12.06
2019-05-01T03:05:53.011Z,12.13
2019-05-01T03:08:18.879Z,12.25
2019-05-01T03:10:44.716Z,12.06
2019-05-01T03:13:10.852Z,12.06
2019-05-01T03:15:36.785Z,12.06
2019-05-01T03:18:04.560Z,12.06
2019-05-01T03:20:49.163Z,12.00
2019-05-01T03:23:26.752Z,11.88
2019-05-01T03:25:52.687Z,12.00
2019-05-01T03:28:18.653Z,12.00
2019-05-01T03:30:44.593Z,11.94
2019-05-01T03:33:10.445Z,12.06
2019-05-01T03:35:36.295Z,11.94
2019-05-01T03:38:02.447Z,11.88
2019-05-01T03:40:28.398Z,11.88
2019-05-01T03:42:54.451Z,11.88
2019-05-01T03:45:20.279Z,11.81
2019-05-01T03:47:46.168Z,11.75
2019-05-01T03:50:12.159Z,11.69
2019-05-01T03:52:38.027Z,11.69
2019-05-01T03:55:03.896Z,11.63
2019-05-01T03:57:29.707Z,11.56
2019-05-01T03:59:55.646Z,11.69
2019-05-01T04:02:39.345Z,11.56
2019-05-01T04:05:05.311Z,11.56
2019-05-01T04:07:31.239Z,11.50
2019-05-01T04:09:57.303Z,11.63
2019-05-01T04:12:23.215Z,11.56
2019-05-01T04:14:49.052Z,11.44
2019-05-01T04:17:16.834Z,11.56
2019-05-01T04:19:42.715Z,11.44
2019-05-01T04:22:12.570Z,11.44
2019-05-01T04:24:38.905Z,11.44
2019-05-01T04:27:06.811Z,11.50
2019-05-01T04:29:34.588Z,11.50
2019-05-01T04:32:03.035Z,11.63
2019-05-01T04:34:33.894Z,11.56
2019-05-01T04:37:07.836Z,11.50
2019-05-01T04:39:34.065Z,11.50
2019-05-01T04:41:59.892Z,11.56
2019-05-01T04:44:26.069Z,11.50
2019-05-01T04:46:53.582Z,11.56
2019-05-01T04:49:19.740Z,11.75
2019-05-01T04:51:45.585Z,11.63
2019-05-01T04:54:11.770Z,11.63
2019-05-01T04:56:37.885Z,11.56
2019-05-01T04:59:03.729Z,11.56
2019-05-01T05:01:31.461Z,11.56
2019-05-01T05:03:57.475Z,11.44
2019-05-01T05:06:23.435Z,11.56
2019-05-01T05:08:49.329Z,11.56
2019-05-01T05:11:17.215Z,11.56
2019-05-01T05:14:01.579Z,11.69
2019-05-01T05:16:44.288Z,11.50
2019-05-01T05:19:10.435Z,11.44
2019-05-01T05:21:36.261Z,11.56
2019-05-01T05:24:02.092Z,11.56
2019-05-01T05:26:27.945Z,11.56
2019-05-01T05:28:54.805Z,11.56
2019-05-01T05:31:22.675Z,11.50
2019-05-01T05:33:48.711Z,11.44
2019-05-01T05:36:15.929Z,11.81
2019-05-01T05:38:45.275Z,11.69
2019-05-01T05:41:11.841Z,11.75
2019-05-01T05:43:37.907Z,11.75
2019-05-01T05:46:04.446Z,11.81
2019-05-01T05:48:30.283Z,11.88
2019-05-01T05:51:17.088Z,11.81
2019-05-01T05:53:46.388Z,11.81
2019-05-01T05:56:15.628Z,11.75
2019-05-01T06:01:39.501Z,11.81
2019-05-01T06:04:08.652Z,12.13
2019-05-01T06:06:37.101Z,11.94
2019-05-01T06:09:04.335Z,11.75
2019-05-01T06:11:49.324Z,11.75
2019-05-01T06:14:34.974Z,11.69
2019-05-01T06:17:15.056Z,11.69
2019-05-01T06:19:45.989Z,11.69
2019-05-01T06:22:15.247Z,11.63
2019-05-01T06:24:43.071Z,11.63
2019-05-01T06:27:13.720Z,11.50
2019-05-01T06:29:37.585Z,11.56
2019-05-01T06:32:03.441Z,11.69
2019-05-01T06:34:29.825Z,11.69
2019-05-01T06:36:55.868Z,11.75
2019-05-01T06:39:22.203Z,11.69
2019-05-01T06:41:48.475Z,11.81
2019-05-01T06:44:16.295Z,11.63
2019-05-01T06:46:47.342Z,11.75
2019-05-01T06:49:29.429Z,11.88
2019-05-01T06:51:56.513Z,11.81
2019-05-01T06:54:23.720Z,11.75
2019-05-01T06:56:50.274Z,11.75
2019-05-01T06:59:16.499Z,11.69
2019-05-01T07:01:43.314Z,11.69
2019-05-01T07:04:09.397Z,11.75
2019-05-01T07:06:35.276Z,11.56
2019-05-01T07:09:02.371Z,11.44
2019-05-01T07:14:56.386Z,11.44
2019-05-01T07:17:22.339Z,11.44
2019-05-01T07:19:59.006Z,11.56
2019-05-01T07:22:24.874Z,11.31
2019-05-01T07:24:50.807Z,11.44
2019-05-01T07:27:18.809Z,11.50
2019-05-01T07:29:46.695Z,11.38
2019-05-01T07:32:14.995Z,11.69
2019-05-01T07:34:40.514Z,11.50
2019-05-01T07:37:08.559Z,11.63
2019-05-01T07:39:34.414Z,11.63
2019-05-01T07:42:19.307Z,11.50
2019-05-01T07:44:47.368Z,11.75
2019-05-01T07:47:15.276Z,11.75
2019-05-01T07:49:54.785Z,11.94
2019-05-01T07:52:21.524Z,11.88
2019-05-01T07:54:47.855Z,12.00
2019-05-01T07:57:14.894Z,12.13
2019-05-01T07:59:40.778Z,12.44
2019-05-01T08:02:08.720Z,12.37
2019-05-01T08:04:36.499Z,12.56
2019-05-01T08:07:02.606Z,12.25
2019-05-01T08:09:28.610Z,12.37
2019-05-01T08:11:54.474Z,12.44
2019-05-01T08:14:20.459Z,12.63
2019-05-01T08:16:46.674Z,12.50
2019-05-01T08:19:14.548Z,12.69
2019-05-01T08:21:42.408Z,12.56
2019-05-01T08:24:08.851Z,12.56
2019-05-01T08:26:34.810Z,12.56
2019-05-01T08:29:18.986Z,12.69
2019-05-01T08:31:49.663Z,12.56
2019-05-01T08:34:26.613Z,12.63
2019-05-01T08:36:52.947Z,12.56
2019-05-01T08:39:18.869Z,12.75
2019-05-01T08:41:44.834Z,12.75
2019-05-01T08:44:10.770Z,13.13
2019-05-01T08:46:38.518Z,13.19
2019-05-01T08:49:11.398Z,13.44
2019-05-01T08:51:36.767Z,13.31
2019-05-01T08:54:02.953Z,13.31
2019-05-01T08:56:28.774Z,13.19
2019-05-01T08:58:54.683Z,13.31
2019-05-01T09:01:20.607Z,13.38
2019-05-01T09:03:49.697Z,13.38
2019-05-01T09:06:14.290Z,13.50
2019-05-01T09:08:40.211Z,13.44
2019-05-01T09:11:06.036Z,13.50
2019-05-01T09:13:31.897Z,13.62
2019-05-01T09:16:00.122Z,13.56
2019-05-01T09:18:26.165Z,13.69
2019-05-01T09:20:54.049Z,13.81
2019-05-01T09:23:19.983Z,13.88
2019-05-01T09:25:47.729Z,13.69
2019-05-01T09:28:35.948Z,13.81
2019-05-01T09:31:04.187Z,13.69
2019-05-01T09:33:30.767Z,13.75
2019-05-01T09:35:58.082Z,13.69
2019-05-01T09:38:24.014Z,13.94
2019-05-01T09:40:49.879Z,13.75
2019-05-01T09:43:15.973Z,13.75
2019-05-01T09:45:41.882Z,13.81
2019-05-01T09:48:08.523Z,13.88
2019-05-01T09:50:36.311Z,13.94
2019-05-01T09:53:09.684Z,13.94
2019-05-01T09:55:40.199Z,14.00
2019-05-01T09:58:06.042Z,14.25
2019-05-01T10:00:32.755Z,14.31
2019-05-01T10:02:58.692Z,14.25
2019-05-01T10:05:28.965Z,14.38
2019-05-01T10:07:52.633Z,14.38
2019-05-01T10:10:18.531Z,14.31
2019-05-01T10:12:47.164Z,14.38
2019-05-01T10:15:14.223Z,14.44
2019-05-01T10:17:40.145Z,14.50
2019-05-01T10:20:06.563Z,14.50
2019-05-01T10:22:32.969Z,14.56
2019-05-01T10:25:01.263Z,14.75
2019-05-01T10:27:30.791Z,14.56
2019-05-01T10:30:15.465Z,14.69
2019-05-01T10:32:43.218Z,14.63
2019-05-01T10:35:14.143Z,14.56
2019-05-01T10:37:39.989Z,14.63
2019-05-01T10:40:07.134Z,14.63
2019-05-01T10:42:32.962Z,14.56
2019-05-01T10:44:59.055Z,14.81
2019-05-01T10:47:34.204Z,14.75
2019-05-01T10:50:00.273Z,14.75
2019-05-01T10:52:26.164Z,14.94
2019-05-01T10:54:52.127Z,14.87
2019-05-01T10:57:19.973Z,14.81
2019-05-01T10:59:45.937Z,15.19
2019-05-01T11:02:17.518Z,15.19
2019-05-01T11:04:43.463Z,15.13
2019-05-01T11:07:09.319Z,15.25
2019-05-01T11:09:35.166Z,15.50
2019-05-01T11:12:00.992Z,15.38
2019-05-01T11:14:26.867Z,15.44
2019-05-01T11:16:52.697Z,15.50
2019-05-01T11:19:18.864Z,15.38
2019-05-01T11:21:45.227Z,15.44
2019-05-01T11:24:11.078Z,15.19
2019-05-01T11:26:36.935Z,15.38
2019-05-01T11:29:03.634Z,15.50
2019-05-01T11:31:47.960Z,15.56
2019-05-01T11:34:24.815Z,15.75
2019-05-01T11:37:10.860Z,15.75
2019-05-01T11:39:42.132Z,15.75
2019-05-01T11:42:09.943Z,15.81
2019-05-01T11:44:35.785Z,15.75
2019-05-01T11:47:01.661Z,15.69
2019-05-01T11:49:27.788Z,15.69
2019-05-01T11:51:53.751Z,15.81
2019-05-01T11:54:20.006Z,15.81
2019-05-01T11:56:45.926Z,15.88
2019-05-01T11:59:12.164Z,16.00
2019-05-01T12:01:38.164Z,16.06
2019-05-01T12:04:04.059Z,16.12
2019-05-01T12:06:30.052Z,16.06
2019-05-01T12:08:56.015Z,16.31
2019-05-01T12:11:24.179Z,16.25
2019-05-01T12:13:50.185Z,16.37
2019-05-01T12:16:18.000Z,16.44
2019-05-01T12:18:43.910Z,16.12
2019-05-01T12:21:09.885Z,16.25
2019-05-01T12:23:35.752Z,16.06
2019-05-01T12:26:01.699Z,16.19
2019-05-01T12:28:27.603Z,16.06
2019-05-01T12:30:53.597Z,16.06
2019-05-01T12:33:19.475Z,15.88
2019-05-01T12:35:47.412Z,15.94
2019-05-01T12:38:13.359Z,15.94
2019-05-01T12:40:39.559Z,16.00
2019-05-01T12:43:05.777Z,16.12
2019-05-01T12:45:31.650Z,16.31
2019-05-01T12:47:59.488Z,16.44
2019-05-01T12:50:25.382Z,16.31
2019-05-01T12:52:59.102Z,16.37
2019-05-01T12:55:43.892Z,16.44
2019-05-01T12:58:09.855Z,16.37
2019-05-01T13:00:39.150Z,16.19
2019-05-01T13:03:05.029Z,16.25
2019-05-01T13:05:31.086Z,16.25
2019-05-01T13:07:58.962Z,16.25
2019-05-01T13:10:24.847Z,16.19
2019-05-01T13:12:50.805Z,16.25
2019-05-01T13:15:16.691Z,16.12
2019-05-01T13:17:42.542Z,16.25
2019-05-01T13:20:08.628Z,16.44
2019-05-01T13:22:34.489Z,16.31
2019-05-01T13:25:00.328Z,16.37
2019-05-01T13:27:28.067Z,16.31
2019-05-01T13:29:55.958Z,16.31
2019-05-01T13:32:32.633Z,16.31
2019-05-01T13:34:58.483Z,16.31
2019-05-01T13:37:24.339Z,16.25
2019-05-01T13:39:50.180Z,16.31
2019-05-01T13:42:16.251Z,16.44
2019-05-01T13:44:42.474Z,16.25
2019-05-01T13:47:08.472Z,16.37
2019-05-01T13:49:34.408Z,16.31
2019-05-01T13:52:00.251Z,18.00
2019-05-01T13:54:26.090Z,19.44
2019-05-01T13:56:51.919Z,20.06
2019-05-01T13:59:17.799Z,20.25
2019-05-01T14:01:43.727Z,20.44
2019-05-01T14:04:11.087Z,20.37
2019-05-01T14:06:37.023Z,19.31
2019-05-01T14:09:05.698Z,18.37
2019-05-01T14:11:31.614Z,18.19
2019-05-01T14:13:57.542Z,18.06
2019-05-01T14:16:23.699Z,18.50
2019-05-01T14:18:49.567Z,18.62
2019-05-01T14:21:20.069Z,18.19
2019-05-01T14:23:48.035Z,18.00
2019-05-01T14:26:14.071Z,17.94
2019-05-01T14:28:40.089Z,17.62
2019-05-01T14:31:06.669Z,17.75
2019-05-01T14:33:32.683Z,17.44
2019-05-01T14:35:58.737Z,17.50
2019-05-01T14:38:24.826Z,17.69
2019-05-01T14:40:51.031Z,17.81
2019-05-01T14:43:18.426Z,17.87
2019-05-01T14:45:44.444Z,18.19
2019-05-01T14:48:10.523Z,17.81
2019-05-01T14:50:36.659Z,18.62
2019-05-01T14:53:02.859Z,18.37
2019-05-01T14:55:28.920Z,18.56
2019-05-01T14:57:54.967Z,18.12
2019-05-01T15:00:21.764Z,17.94
2019-05-01T15:02:47.800Z,17.81
2019-05-01T15:05:13.942Z,18.00
2019-05-01T15:07:43.751Z,18.56
2019-05-01T15:10:08.537Z,18.50
2019-05-01T15:12:34.636Z,18.19
2019-05-01T15:15:20.840Z,18.06
2019-05-01T15:17:49.171Z,18.75
2019-05-01T15:20:15.360Z,18.62
2019-05-01T15:22:41.355Z,18.87
2019-05-01T15:25:07.605Z,18.37
2019-05-01T15:27:33.740Z,18.94
2019-05-01T15:29:59.745Z,18.44
2019-05-01T15:32:25.794Z,18.44
2019-05-01T15:34:51.848Z,18.75
2019-05-01T15:37:17.888Z,18.94
2019-05-01T15:39:46.084Z,18.75
2019-05-01T15:42:14.147Z,18.69
2019-05-01T15:44:42.066Z,18.62
2019-05-01T15:47:08.084Z,18.44
2019-05-01T15:49:34.112Z,18.50
2019-05-01T15:52:00.227Z,18.50
2019-05-01T15:54:26.229Z,18.56
2019-05-01T15:56:52.279Z,18.94
2019-05-01T15:59:18.394Z,18.62
2019-05-01T16:01:44.253Z,18.81
2019-05-01T16:04:10.402Z,18.50
2019-05-01T16:06:36.460Z,18.87
2019-05-01T16:09:04.976Z,18.75
2019-05-01T16:11:41.915Z,19.06
2019-05-01T16:14:07.962Z,19.19
2019-05-01T16:16:33.963Z,18.50
2019-05-01T16:19:00.019Z,19.19
2019-05-01T16:21:25.947Z,18.81
2019-05-01T16:23:51.966Z,17.87
2019-05-01T16:26:17.907Z,17.25
2019-05-01T16:28:43.889Z,17.00
2019-05-01T16:31:10.061Z,16.81
2019-05-01T16:33:41.691Z,16.81
2019-05-01T16:36:07.816Z,16.69
2019-05-01T16:38:50.809Z,16.69
2019-05-01T16:41:16.798Z,16.62
2019-05-01T16:43:42.728Z,16.50
2019-05-01T16:46:08.819Z,16.50
2019-05-01T16:48:34.884Z,16.37
2019-05-01T16:51:00.926Z,16.31
2019-05-01T16:53:27.094Z,16.31
2019-05-01T16:55:56.496Z,16.37
2019-05-01T16:58:24.895Z,16.31
2019-05-01T17:00:56.973Z,16.12
2019-05-01T17:03:36.793Z,16.12
2019-05-01T17:06:04.868Z,16.12
2019-05-01T17:08:54.833Z,16.00
2019-05-01T17:11:23.826Z,16.06
2019-05-01T17:13:50.082Z,16.12
2019-05-01T17:16:16.234Z,16.12
2019-05-01T17:18:42.431Z,16.06
2019-05-01T17:21:08.807Z,15.94
2019-05-01T17:23:35.333Z,15.94
2019-05-01T17:26:01.380Z,15.88
2019-05-01T17:28:27.713Z,15.88
2019-05-01T17:30:55.773Z,15.81
2019-05-01T17:33:22.184Z,15.81
2019-05-01T17:35:48.409Z,15.75
2019-05-01T17:38:14.605Z,15.75
2019-05-01T17:40:40.748Z,15.75
2019-05-01T17:43:08.158Z,15.88
2019-05-01T17:45:36.656Z,15.69
2019-05-01T17:48:03.218Z,15.63
2019-05-01T17:50:29.165Z,15.56
2019-05-01T17:52:55.250Z,15.63
2019-05-01T17:55:21.442Z,15.56
2019-05-01T17:57:47.593Z,15.44
2019-05-01T18:00:32.335Z,15.44
2019-05-01T18:03:17.052Z,15.50
2019-05-01T18:05:50.795Z,15.31
2019-05-01T18:08:16.852Z,15.31
2019-05-01T18:10:42.831Z,15.25
2019-05-01T18:13:08.856Z,15.25
2019-05-01T18:15:34.934Z,15.25
2019-05-01T18:18:00.949Z,15.19
2019-05-01T18:20:27.037Z,15.19
2019-05-01T18:22:58.045Z,15.19
2019-05-01T18:25:33.258Z,15.19
2019-05-01T18:28:04.339Z,15.06
2019-05-01T18:30:32.277Z,15.06
2019-05-01T18:32:58.143Z,14.94
2019-05-01T18:35:24.003Z,14.94
2019-05-01T18:37:51.735Z,14.94
2019-05-01T18:40:19.782Z,14.75
2019-05-01T18:42:45.767Z,14.75
2019-05-01T18:45:35.384Z,14.75
2019-05-01T18:48:01.429Z,14.63
2019-05-01T18:50:27.667Z,14.63
2019-05-01T18:52:53.861Z,14.56
2019-05-01T18:55:19.809Z,14.63
2019-05-01T18:57:45.659Z,14.50
2019-05-01T19:00:11.869Z,14.38
2019-05-01T19:02:39.033Z,14.44
2019-05-01T19:05:08.747Z,14.44
2019-05-01T19:07:35.147Z,14.31
2019-05-01T19:10:01.033Z,14.44
2019-05-01T19:12:26.927Z,14.44
2019-05-01T19:15:00.350Z,14.13
2019-05-01T19:17:25.186Z,14.13
2019-05-01T19:20:58.858Z,14.06
2019-05-01T19:22:30.683Z,14.00
2019-05-01T19:24:57.267Z,13.81
2019-05-01T19:27:24.429Z,13.94
2019-05-01T19:29:51.038Z,13.81
2019-05-01T19:32:19.009Z,13.94
2019-05-01T19:34:44.945Z,13.94
2019-05-01T19:37:11.157Z,13.44
2019-05-01T19:39:43.553Z,13.62
2019-05-01T19:42:04.864Z,13.69
2019-05-01T19:44:30.716Z,13.75
2019-05-01T19:47:00.401Z,13.56
2019-05-01T19:49:39.549Z,13.62
2019-05-01T19:52:10.485Z,13.44
2019-05-01T19:54:36.461Z,13.44
2019-05-01T19:57:02.446Z,13.50
2019-05-01T19:59:28.314Z,13.25
2019-05-01T20:01:54.465Z,13.25
2019-05-01T20:04:20.385Z,13.19
2019-05-01T20:06:49.461Z,13.25
2019-05-01T20:09:15.757Z,13.25
2019-05-01T20:11:42.911Z,13.13
2019-05-01T20:14:15.347Z,13.13
2019-05-01T20:16:54.916Z,13.06
2019-05-01T20:19:21.578Z,13.06
2019-05-01T20:21:47.494Z,13.00
2019-05-01T20:24:13.375Z,13.00
2019-05-01T20:26:39.283Z,12.88
2019-05-01T20:29:05.138Z,12.81
2019-05-01T20:31:32.887Z,12.81
2019-05-01T20:33:58.726Z,12.88
2019-05-01T20:36:24.707Z,12.94
2019-05-01T20:38:50.566Z,12.81
2019-05-01T20:41:18.094Z,12.81
2019-05-01T20:43:45.421Z,12.56
2019-05-01T20:46:11.475Z,12.75
2019-05-01T20:48:37.327Z,12.75
2019-05-01T20:51:03.393Z,12.75
2019-05-01T20:53:29.250Z,12.56
2019-05-01T20:56:02.680Z,12.56
2019-05-01T20:58:28.534Z,12.63
2019-05-01T21:00:56.445Z,12.50
2019-05-01T21:03:22.280Z,12.37
2019-05-01T21:05:52.904Z,12.50
2019-05-01T21:08:29.053Z,12.44
2019-05-01T21:10:55.887Z,12.25
2019-05-01T21:13:23.284Z,12.19
2019-05-01T21:15:49.635Z,12.13
2019-05-01T21:18:15.495Z,12.13
2019-05-01T21:20:41.422Z,12.06
2019-05-01T21:23:10.569Z,12.25
2019-05-01T21:25:35.115Z,12.00
2019-05-01T21:28:01.071Z,11.94
2019-05-01T21:30:26.991Z,11.88
2019-05-01T21:32:54.213Z,12.00
2019-05-01T21:35:20.099Z,11.94
2019-05-01T21:37:45.950Z,11.88
2019-05-01T21:40:12.902Z,11.81
2019-05-01T21:42:38.930Z,11.88
2019-05-01T21:45:05.678Z,11.75
2019-05-01T21:47:33.424Z,11.69
2019-05-01T21:49:59.240Z,11.69
2019-05-01T21:52:26.809Z,11.69
2019-05-01T21:54:55.281Z,11.56
2019-05-01T21:57:20.572Z,11.38
2019-05-01T21:59:48.119Z,11.31
2019-05-01T22:02:14.276Z,11.38
2019-05-01T22:04:40.150Z,11.44
2019-05-01T22:07:07.127Z,11.31
2019-05-01T22:09:33.359Z,11.56
2019-05-01T22:11:59.178Z,11.25
2019-05-01T22:14:31.213Z,11.12
2019-05-01T22:16:56.892Z,11.00
2019-05-01T22:19:24.340Z,11.25
2019-05-01T22:21:54.742Z,11.19
2019-05-01T22:24:33.933Z,10.94
2019-05-01T22:27:08.306Z,11.06
2019-05-01T22:29:36.047Z,10.81
2019-05-01T22:32:03.983Z,10.81
2019-05-01T22:34:40.634Z,10.81
2019-05-01T22:37:06.463Z,10.75
2019-05-01T22:39:34.310Z,10.75
2019-05-01T22:42:00.173Z,10.75
2019-05-01T22:44:26.012Z,10.56
2019-05-01T22:46:51.854Z,10.50
2019-05-01T22:49:17.702Z,10.56
2019-05-01T22:51:43.582Z,10.50
2019-05-01T22:54:09.488Z,10.31
2019-05-01T22:56:35.440Z,10.38
2019-05-01T22:59:01.698Z,10.25
2019-05-01T23:01:27.622Z,10.44
2019-05-01T23:03:58.245Z,10.25
2019-05-01T23:06:24.112Z,10.25
2019-05-01T23:08:49.981Z,10.25
2019-05-01T23:11:20.283Z,10.13
2019-05-01T23:13:43.827Z,10.19
2019-05-01T23:16:11.585Z,10.00
2019-05-01T23:18:37.432Z,9.94
2019-05-01T23:21:03.584Z,9.94
2019-05-01T23:23:29.396Z,9.94
2019-05-01T23:25:55.234Z,9.88
2019-05-01T23:28:21.078Z,9.81
2019-05-01T23:30:46.911Z,9.94
2019-05-01T23:33:12.772Z,9.75
2019-05-01T23:35:39.659Z,9.94
2019-05-01T23:38:05.486Z,9.88
2019-05-01T23:40:31.334Z,9.75
2019-05-01T23:42:57.191Z,9.63
2019-05-01T23:45:23.111Z,9.56
2019-05-01T23:47:48.992Z,9.50
2019-05-01T23:50:14.919Z,9.56
2019-05-01T23:52:40.790Z,9.56
2019-05-01T23:55:06.787Z,9.56
2019-05-01T23:57:32.633Z,9.75
2019-05-01T23:59:58.480Z,9.56
